sensor_id;sensor_type;location;lat;lon;timestamp;P1;durP1;ratioP1;P2;durP2;ratioP2
75009;SDS011;63564;46.840;18.336;2023-05-02T00:01:08;5.50;;;2.60;;
75009;SDS011;63564;46.840;18.336;2023-05-02T00:04:08;4.93;;;2.13;;
75009;SDS011;63564;46.840;18.336;2023-05-02T00:07:09;5.27;;;2.40;;
75009;SDS011;63564;46.840;18.336;2023-05-02T00:10:10;5.07;;;2.42;;
75009;SDS011;63564;46.840;18.336;2023-05-02T00:13:10;6.20;;;2.87;;
75009;SDS011;63564;46.840;18.336;2023-05-02T00:16:11;6.65;;;2.80;;
75009;SDS011;63564;46.840;18.336;2023-05-02T00:19:11;5.50;;;2.50;;
75009;SDS011;63564;46.840;18.336;2023-05-02T00:22:12;4.77;;;2.43;;
75009;SDS011;63564;46.840;18.336;2023-05-02T00:25:13;6.47;;;2.70;;
75009;SDS011;63564;46.840;18.336;2023-05-02T00:28:16;6.30;;;2.75;;
75009;SDS011;63564;46.840;18.336;2023-05-02T00:31:16;5.78;;;2.60;;
75009;SDS011;63564;46.840;18.336;2023-05-02T00:34:17;7.20;;;2.57;;
75009;SDS011;63564;46.840;18.336;2023-05-02T00:37:17;5.27;;;2.67;;
75009;SDS011;63564;46.840;18.336;2023-05-02T00:40:17;5.90;;;2.80;;
75009;SDS011;63564;46.840;18.336;2023-05-02T00:43:18;7.00;;;2.72;;
75009;SDS011;63564;46.840;18.336;2023-05-02T00:46:19;6.93;;;2.80;;
75009;SDS011;63564;46.840;18.336;2023-05-02T00:49:19;6.27;;;2.80;;
75009;SDS011;63564;46.840;18.336;2023-05-02T00:52:20;5.80;;;2.65;;
75009;SDS011;63564;46.840;18.336;2023-05-02T00:55:21;8.93;;;3.00;;
75009;SDS011;63564;46.840;18.336;2023-05-02T00:58:21;6.68;;;2.70;;
75009;SDS011;63564;46.840;18.336;2023-05-02T01:04:39;6.05;;;2.80;;
75009;SDS011;63564;46.840;18.336;2023-05-02T01:08:02;5.75;;;3.08;;
75009;SDS011;63564;46.840;18.336;2023-05-02T01:11:17;6.60;;;2.60;;
75009;SDS011;63564;46.840;18.336;2023-05-02T01:14:27;7.10;;;2.75;;
75009;SDS011;63564;46.840;18.336;2023-05-02T01:17:29;7.88;;;3.05;;
75009;SDS011;63564;46.840;18.336;2023-05-02T01:20:33;7.78;;;2.80;;
75009;SDS011;63564;46.840;18.336;2023-05-02T01:27:13;6.47;;;2.80;;
75009;SDS011;63564;46.840;18.336;2023-05-02T01:30:22;7.15;;;3.03;;
75009;SDS011;63564;46.840;18.336;2023-05-02T01:33:25;6.32;;;3.10;;
75009;SDS011;63564;46.840;18.336;2023-05-02T01:36:29;7.50;;;3.08;;
75009;SDS011;63564;46.840;18.336;2023-05-02T01:39:31;6.95;;;2.85;;
75009;SDS011;63564;46.840;18.336;2023-05-02T01:42:34;6.90;;;3.17;;
75009;SDS011;63564;46.840;18.336;2023-05-02T01:45:36;6.18;;;2.75;;
75009;SDS011;63564;46.840;18.336;2023-05-02T01:48:37;7.78;;;3.15;;
75009;SDS011;63564;46.840;18.336;2023-05-02T01:51:41;6.57;;;3.08;;
75009;SDS011;63564;46.840;18.336;2023-05-02T01:54:44;5.55;;;2.72;;
75009;SDS011;63564;46.840;18.336;2023-05-02T01:57:45;7.20;;;2.80;;
75009;SDS011;63564;46.840;18.336;2023-05-02T02:00:47;6.13;;;2.90;;
75009;SDS011;63564;46.840;18.336;2023-05-02T02:03:49;6.35;;;3.03;;
75009;SDS011;63564;46.840;18.336;2023-05-02T02:06:51;6.77;;;3.13;;
75009;SDS011;63564;46.840;18.336;2023-05-02T02:09:56;7.68;;;3.25;;
75009;SDS011;63564;46.840;18.336;2023-05-02T02:13:03;6.13;;;3.00;;
75009;SDS011;63564;46.840;18.336;2023-05-02T02:16:11;6.97;;;3.13;;
75009;SDS011;63564;46.840;18.336;2023-05-02T02:19:15;8.07;;;3.05;;
75009;SDS011;63564;46.840;18.336;2023-05-02T02:22:17;7.32;;;3.13;;
75009;SDS011;63564;46.840;18.336;2023-05-02T02:25:19;7.23;;;3.10;;
75009;SDS011;63564;46.840;18.336;2023-05-02T02:28:19;8.02;;;2.90;;
75009;SDS011;63564;46.840;18.336;2023-05-02T02:31:20;6.87;;;3.10;;
75009;SDS011;63564;46.840;18.336;2023-05-02T02:34:21;7.10;;;3.55;;
75009;SDS011;63564;46.840;18.336;2023-05-02T02:37:31;7.07;;;3.13;;
75009;SDS011;63564;46.840;18.336;2023-05-02T02:40:37;7.63;;;3.33;;
75009;SDS011;63564;46.840;18.336;2023-05-02T02:43:49;7.82;;;3.30;;
75009;SDS011;63564;46.840;18.336;2023-05-02T02:47:10;7.05;;;3.38;;
75009;SDS011;63564;46.840;18.336;2023-05-02T02:50:30;7.22;;;3.30;;
75009;SDS011;63564;46.840;18.336;2023-05-02T02:57:00;7.90;;;3.50;;
75009;SDS011;63564;46.840;18.336;2023-05-02T03:00:12;7.38;;;3.78;;
75009;SDS011;63564;46.840;18.336;2023-05-02T03:03:14;10.38;;;3.58;;
75009;SDS011;63564;46.840;18.336;2023-05-02T03:06:16;8.50;;;4.00;;
75009;SDS011;63564;46.840;18.336;2023-05-02T03:09:17;7.43;;;3.38;;
75009;SDS011;63564;46.840;18.336;2023-05-02T03:12:18;7.97;;;3.40;;
75009;SDS011;63564;46.840;18.336;2023-05-02T03:18:49;7.53;;;3.85;;
75009;SDS011;63564;46.840;18.336;2023-05-02T03:21:50;7.40;;;3.80;;
75009;SDS011;63564;46.840;18.336;2023-05-02T03:24:50;8.53;;;3.73;;
75009;SDS011;63564;46.840;18.336;2023-05-02T03:27:51;7.37;;;3.80;;
75009;SDS011;63564;46.840;18.336;2023-05-02T03:30:51;7.10;;;3.60;;
75009;SDS011;63564;46.840;18.336;2023-05-02T03:33:51;7.88;;;3.67;;
75009;SDS011;63564;46.840;18.336;2023-05-02T03:36:52;7.83;;;3.77;;
75009;SDS011;63564;46.840;18.336;2023-05-02T03:39:52;8.13;;;4.00;;
75009;SDS011;63564;46.840;18.336;2023-05-02T03:42:53;7.10;;;3.53;;
75009;SDS011;63564;46.840;18.336;2023-05-02T03:45:54;8.32;;;3.90;;
75009;SDS011;63564;46.840;18.336;2023-05-02T03:48:56;7.97;;;3.70;;
75009;SDS011;63564;46.840;18.336;2023-05-02T03:51:56;7.20;;;3.40;;
75009;SDS011;63564;46.840;18.336;2023-05-02T03:54:57;9.20;;;4.07;;
75009;SDS011;63564;46.840;18.336;2023-05-02T03:57:57;8.40;;;4.00;;
75009;SDS011;63564;46.840;18.336;2023-05-02T04:00:58;7.73;;;4.03;;
75009;SDS011;63564;46.840;18.336;2023-05-02T04:03:58;8.80;;;3.93;;
75009;SDS011;63564;46.840;18.336;2023-05-02T04:06:58;7.40;;;3.77;;
75009;SDS011;63564;46.840;18.336;2023-05-02T04:09:59;8.88;;;3.65;;
75009;SDS011;63564;46.840;18.336;2023-05-02T04:12:59;8.03;;;3.90;;
75009;SDS011;63564;46.840;18.336;2023-05-02T04:16:02;8.17;;;4.00;;
75009;SDS011;63564;46.840;18.336;2023-05-02T04:19:03;9.15;;;4.75;;
75009;SDS011;63564;46.840;18.336;2023-05-02T04:22:03;9.53;;;4.37;;
75009;SDS011;63564;46.840;18.336;2023-05-02T04:25:04;8.85;;;3.97;;
75009;SDS011;63564;46.840;18.336;2023-05-02T04:28:06;11.23;;;4.60;;
75009;SDS011;63564;46.840;18.336;2023-05-02T04:31:06;9.38;;;5.03;;
75009;SDS011;63564;46.840;18.336;2023-05-02T04:34:07;12.32;;;8.00;;
75009;SDS011;63564;46.840;18.336;2023-05-02T04:37:07;12.27;;;6.47;;
75009;SDS011;63564;46.840;18.336;2023-05-02T04:40:08;12.43;;;6.30;;
75009;SDS011;63564;46.840;18.336;2023-05-02T04:43:08;9.57;;;4.95;;
75009;SDS011;63564;46.840;18.336;2023-05-02T04:46:09;7.60;;;4.23;;
75009;SDS011;63564;46.840;18.336;2023-05-02T04:49:10;12.10;;;5.28;;
75009;SDS011;63564;46.840;18.336;2023-05-02T04:52:11;10.83;;;4.23;;
75009;SDS011;63564;46.840;18.336;2023-05-02T04:55:11;8.93;;;4.30;;
75009;SDS011;63564;46.840;18.336;2023-05-02T04:58:12;9.20;;;4.20;;
75009;SDS011;63564;46.840;18.336;2023-05-02T05:01:12;9.60;;;4.87;;
75009;SDS011;63564;46.840;18.336;2023-05-02T05:04:13;9.30;;;4.90;;
75009;SDS011;63564;46.840;18.336;2023-05-02T05:07:13;9.03;;;4.47;;
75009;SDS011;63564;46.840;18.336;2023-05-02T05:10:13;10.23;;;4.77;;
75009;SDS011;63564;46.840;18.336;2023-05-02T05:13:14;11.02;;;5.18;;
75009;SDS011;63564;46.840;18.336;2023-05-02T05:16:14;9.53;;;4.87;;
75009;SDS011;63564;46.840;18.336;2023-05-02T05:19:15;9.90;;;4.57;;
75009;SDS011;63564;46.840;18.336;2023-05-02T05:22:15;12.27;;;5.57;;
75009;SDS011;63564;46.840;18.336;2023-05-02T05:25:16;12.03;;;5.50;;
75009;SDS011;63564;46.840;18.336;2023-05-02T05:28:16;11.25;;;5.15;;
75009;SDS011;63564;46.840;18.336;2023-05-02T05:31:17;10.40;;;5.63;;
75009;SDS011;63564;46.840;18.336;2023-05-02T05:34:18;11.50;;;4.93;;
75009;SDS011;63564;46.840;18.336;2023-05-02T05:37:18;9.88;;;4.85;;
75009;SDS011;63564;46.840;18.336;2023-05-02T05:40:19;11.80;;;5.40;;
75009;SDS011;63564;46.840;18.336;2023-05-02T05:43:20;11.40;;;5.57;;
75009;SDS011;63564;46.840;18.336;2023-05-02T05:46:20;9.80;;;4.67;;
75009;SDS011;63564;46.840;18.336;2023-05-02T05:49:21;10.97;;;5.27;;
75009;SDS011;63564;46.840;18.336;2023-05-02T05:52:23;11.93;;;4.95;;
75009;SDS011;63564;46.840;18.336;2023-05-02T05:55:26;9.38;;;4.72;;
75009;SDS011;63564;46.840;18.336;2023-05-02T05:58:27;8.40;;;4.50;;
75009;SDS011;63564;46.840;18.336;2023-05-02T06:01:28;10.43;;;5.07;;
75009;SDS011;63564;46.840;18.336;2023-05-02T06:04:28;8.80;;;4.70;;
75009;SDS011;63564;46.840;18.336;2023-05-02T06:07:29;11.73;;;5.60;;
75009;SDS011;63564;46.840;18.336;2023-05-02T06:10:30;10.63;;;5.10;;
75009;SDS011;63564;46.840;18.336;2023-05-02T06:13:31;10.43;;;5.53;;
75009;SDS011;63564;46.840;18.336;2023-05-02T06:16:32;9.63;;;4.97;;
75009;SDS011;63564;46.840;18.336;2023-05-02T06:19:32;9.37;;;5.20;;
75009;SDS011;63564;46.840;18.336;2023-05-02T06:22:32;9.33;;;4.97;;
75009;SDS011;63564;46.840;18.336;2023-05-02T06:25:35;9.97;;;4.90;;
75009;SDS011;63564;46.840;18.336;2023-05-02T06:28:36;11.82;;;4.78;;
75009;SDS011;63564;46.840;18.336;2023-05-02T06:31:37;8.13;;;4.50;;
75009;SDS011;63564;46.840;18.336;2023-05-02T06:34:37;9.65;;;4.80;;
75009;SDS011;63564;46.840;18.336;2023-05-02T06:37:37;8.80;;;4.73;;
75009;SDS011;63564;46.840;18.336;2023-05-02T06:40:38;10.43;;;4.97;;
75009;SDS011;63564;46.840;18.336;2023-05-02T06:43:44;9.38;;;4.95;;
75009;SDS011;63564;46.840;18.336;2023-05-02T06:46:44;8.90;;;4.40;;
75009;SDS011;63564;46.840;18.336;2023-05-02T06:49:44;8.43;;;4.03;;
75009;SDS011;63564;46.840;18.336;2023-05-02T06:52:45;6.10;;;3.33;;
75009;SDS011;63564;46.840;18.336;2023-05-02T06:55:45;10.93;;;3.80;;
75009;SDS011;63564;46.840;18.336;2023-05-02T06:58:47;10.27;;;4.07;;
75009;SDS011;63564;46.840;18.336;2023-05-02T07:01:49;10.27;;;3.45;;
75009;SDS011;63564;46.840;18.336;2023-05-02T07:04:55;8.48;;;3.83;;
75009;SDS011;63564;46.840;18.336;2023-05-02T07:07:59;8.13;;;3.37;;
75009;SDS011;63564;46.840;18.336;2023-05-02T07:10:59;7.35;;;4.20;;
75009;SDS011;63564;46.840;18.336;2023-05-02T07:14:01;8.40;;;3.83;;
75009;SDS011;63564;46.840;18.336;2023-05-02T07:17:01;9.37;;;4.07;;
75009;SDS011;63564;46.840;18.336;2023-05-02T07:20:01;6.60;;;3.43;;
75009;SDS011;63564;46.840;18.336;2023-05-02T07:23:02;7.93;;;4.10;;
75009;SDS011;63564;46.840;18.336;2023-05-02T07:26:03;8.53;;;4.13;;
75009;SDS011;63564;46.840;18.336;2023-05-02T07:29:04;7.93;;;3.70;;
75009;SDS011;63564;46.840;18.336;2023-05-02T07:32:05;7.63;;;3.78;;
75009;SDS011;63564;46.840;18.336;2023-05-02T07:35:06;6.60;;;3.47;;
75009;SDS011;63564;46.840;18.336;2023-05-02T07:38:07;6.47;;;3.80;;
75009;SDS011;63564;46.840;18.336;2023-05-02T07:41:07;6.27;;;3.30;;
75009;SDS011;63564;46.840;18.336;2023-05-02T07:44:07;6.70;;;3.50;;
75009;SDS011;63564;46.840;18.336;2023-05-02T07:47:08;6.80;;;3.90;;
75009;SDS011;63564;46.840;18.336;2023-05-02T07:50:09;6.63;;;3.22;;
75009;SDS011;63564;46.840;18.336;2023-05-02T07:53:09;6.90;;;3.70;;
75009;SDS011;63564;46.840;18.336;2023-05-02T07:56:10;7.75;;;3.78;;
75009;SDS011;63564;46.840;18.336;2023-05-02T07:59:12;7.03;;;3.97;;
75009;SDS011;63564;46.840;18.336;2023-05-02T08:02:17;8.20;;;3.67;;
75009;SDS011;63564;46.840;18.336;2023-05-02T08:05:19;7.85;;;3.70;;
75009;SDS011;63564;46.840;18.336;2023-05-02T08:08:19;7.57;;;3.90;;
75009;SDS011;63564;46.840;18.336;2023-05-02T08:11:19;8.30;;;4.37;;
75009;SDS011;63564;46.840;18.336;2023-05-02T08:14:21;6.75;;;3.60;;
75009;SDS011;63564;46.840;18.336;2023-05-02T08:17:21;5.93;;;3.30;;
75009;SDS011;63564;46.840;18.336;2023-05-02T08:20:28;6.78;;;3.58;;
75009;SDS011;63564;46.840;18.336;2023-05-02T08:23:28;6.20;;;3.50;;
75009;SDS011;63564;46.840;18.336;2023-05-02T08:26:28;12.32;;;3.72;;
75009;SDS011;63564;46.840;18.336;2023-05-02T08:29:29;8.17;;;3.70;;
75009;SDS011;63564;46.840;18.336;2023-05-02T08:32:31;9.98;;;3.70;;
75009;SDS011;63564;46.840;18.336;2023-05-02T08:35:31;8.43;;;3.50;;
75009;SDS011;63564;46.840;18.336;2023-05-02T08:38:32;6.85;;;3.13;;
75009;SDS011;63564;46.840;18.336;2023-05-02T08:41:32;9.43;;;3.53;;
75009;SDS011;63564;46.840;18.336;2023-05-02T08:44:33;6.43;;;3.50;;
75009;SDS011;63564;46.840;18.336;2023-05-02T08:47:33;6.27;;;3.67;;
75009;SDS011;63564;46.840;18.336;2023-05-02T08:50:38;6.32;;;3.20;;
75009;SDS011;63564;46.840;18.336;2023-05-02T08:53:40;6.35;;;3.10;;
75009;SDS011;63564;46.840;18.336;2023-05-02T08:56:41;5.97;;;3.40;;
75009;SDS011;63564;46.840;18.336;2023-05-02T08:59:41;6.13;;;3.43;;
75009;SDS011;63564;46.840;18.336;2023-05-02T09:05:51;6.65;;;3.25;;
75009;SDS011;63564;46.840;18.336;2023-05-02T09:08:54;7.17;;;3.50;;
75009;SDS011;63564;46.840;18.336;2023-05-02T09:11:58;8.63;;;3.47;;
75009;SDS011;63564;46.840;18.336;2023-05-02T09:15:11;6.75;;;3.53;;
75009;SDS011;63564;46.840;18.336;2023-05-02T09:18:18;6.37;;;3.57;;
75009;SDS011;63564;46.840;18.336;2023-05-02T09:21:20;8.40;;;3.47;;
75009;SDS011;63564;46.840;18.336;2023-05-02T09:24:26;6.63;;;3.40;;
75009;SDS011;63564;46.840;18.336;2023-05-02T09:27:27;6.57;;;3.20;;
75009;SDS011;63564;46.840;18.336;2023-05-02T09:30:27;5.80;;;3.60;;
75009;SDS011;63564;46.840;18.336;2023-05-02T09:33:27;6.53;;;3.30;;
75009;SDS011;63564;46.840;18.336;2023-05-02T09:36:28;6.13;;;3.47;;
75009;SDS011;63564;46.840;18.336;2023-05-02T09:39:39;6.93;;;3.60;;
75009;SDS011;63564;46.840;18.336;2023-05-02T09:42:39;6.30;;;3.20;;
75009;SDS011;63564;46.840;18.336;2023-05-02T09:45:40;6.05;;;3.40;;
75009;SDS011;63564;46.840;18.336;2023-05-02T09:48:56;6.70;;;3.30;;
75009;SDS011;63564;46.840;18.336;2023-05-02T09:51:57;6.43;;;3.42;;
75009;SDS011;63564;46.840;18.336;2023-05-02T09:55:19;6.80;;;3.70;;
75009;SDS011;63564;46.840;18.336;2023-05-02T09:58:20;8.57;;;3.50;;
75009;SDS011;63564;46.840;18.336;2023-05-02T10:01:22;7.88;;;3.45;;
75009;SDS011;63564;46.840;18.336;2023-05-02T10:04:22;6.93;;;3.67;;
75009;SDS011;63564;46.840;18.336;2023-05-02T10:07:24;6.80;;;3.70;;
75009;SDS011;63564;46.840;18.336;2023-05-02T10:10:25;7.55;;;3.35;;
75009;SDS011;63564;46.840;18.336;2023-05-02T10:13:26;6.38;;;3.55;;
75009;SDS011;63564;46.840;18.336;2023-05-02T10:16:31;7.30;;;3.70;;
75009;SDS011;63564;46.840;18.336;2023-05-02T10:19:37;6.32;;;3.70;;
75009;SDS011;63564;46.840;18.336;2023-05-02T10:22:50;8.85;;;3.92;;
75009;SDS011;63564;46.840;18.336;2023-05-02T10:25:52;8.05;;;3.90;;
75009;SDS011;63564;46.840;18.336;2023-05-02T10:28:54;6.32;;;3.55;;
75009;SDS011;63564;46.840;18.336;2023-05-02T10:31:56;6.10;;;3.80;;
75009;SDS011;63564;46.840;18.336;2023-05-02T10:35:03;5.95;;;3.78;;
75009;SDS011;63564;46.840;18.336;2023-05-02T10:38:05;6.22;;;3.55;;
75009;SDS011;63564;46.840;18.336;2023-05-02T10:41:07;7.15;;;3.80;;
75009;SDS011;63564;46.840;18.336;2023-05-02T10:44:11;6.90;;;3.50;;
75009;SDS011;63564;46.840;18.336;2023-05-02T10:47:19;6.80;;;3.97;;
75009;SDS011;63564;46.840;18.336;2023-05-02T10:50:23;7.28;;;3.50;;
75009;SDS011;63564;46.840;18.336;2023-05-02T10:53:42;7.47;;;3.93;;
75009;SDS011;63564;46.840;18.336;2023-05-02T11:00:19;7.90;;;4.18;;
75009;SDS011;63564;46.840;18.336;2023-05-02T11:03:52;8.25;;;4.18;;
75009;SDS011;63564;46.840;18.336;2023-05-02T11:10:23;10.57;;;3.90;;
75009;SDS011;63564;46.840;18.336;2023-05-02T11:26:20;7.05;;;3.70;;
75009;SDS011;63564;46.840;18.336;2023-05-02T11:35:52;6.53;;;3.63;;
75009;SDS011;63564;46.840;18.336;2023-05-02T11:38:53;8.98;;;3.90;;
75009;SDS011;63564;46.840;18.336;2023-05-02T11:41:56;7.80;;;3.60;;
75009;SDS011;63564;46.840;18.336;2023-05-02T11:44:57;7.28;;;3.95;;
75009;SDS011;63564;46.840;18.336;2023-05-02T11:47:58;6.00;;;3.63;;
75009;SDS011;63564;46.840;18.336;2023-05-02T11:51:00;7.63;;;4.15;;
75009;SDS011;63564;46.840;18.336;2023-05-02T11:54:02;9.57;;;4.07;;
75009;SDS011;63564;46.840;18.336;2023-05-02T11:57:03;7.97;;;4.00;;
75009;SDS011;63564;46.840;18.336;2023-05-02T12:00:04;6.80;;;3.40;;
75009;SDS011;63564;46.840;18.336;2023-05-02T12:03:05;7.80;;;4.20;;
75009;SDS011;63564;46.840;18.336;2023-05-02T12:06:10;8.52;;;4.38;;
75009;SDS011;63564;46.840;18.336;2023-05-02T12:09:14;6.67;;;4.00;;
75009;SDS011;63564;46.840;18.336;2023-05-02T12:12:19;6.88;;;3.85;;
75009;SDS011;63564;46.840;18.336;2023-05-02T12:15:20;6.80;;;4.18;;
75009;SDS011;63564;46.840;18.336;2023-05-02T12:18:21;6.13;;;4.00;;
75009;SDS011;63564;46.840;18.336;2023-05-02T12:21:22;9.30;;;4.03;;
75009;SDS011;63564;46.840;18.336;2023-05-02T12:24:23;6.53;;;3.97;;
75009;SDS011;63564;46.840;18.336;2023-05-02T12:27:23;7.28;;;4.18;;
75009;SDS011;63564;46.840;18.336;2023-05-02T12:30:25;6.43;;;3.77;;
75009;SDS011;63564;46.840;18.336;2023-05-02T12:33:26;6.13;;;3.70;;
75009;SDS011;63564;46.840;18.336;2023-05-02T12:36:26;5.97;;;3.87;;
75009;SDS011;63564;46.840;18.336;2023-05-02T12:40:00;7.63;;;4.05;;
75009;SDS011;63564;46.840;18.336;2023-05-02T12:43:00;8.83;;;4.00;;
75009;SDS011;63564;46.840;18.336;2023-05-02T12:46:09;6.10;;;3.90;;
75009;SDS011;63564;46.840;18.336;2023-05-02T12:49:10;7.55;;;3.90;;
75009;SDS011;63564;46.840;18.336;2023-05-02T12:52:11;7.97;;;3.93;;
75009;SDS011;63564;46.840;18.336;2023-05-02T12:55:18;7.30;;;3.97;;
75009;SDS011;63564;46.840;18.336;2023-05-02T12:58:25;6.47;;;3.77;;
75009;SDS011;63564;46.840;18.336;2023-05-02T13:01:27;11.20;;;3.83;;
75009;SDS011;63564;46.840;18.336;2023-05-02T13:04:34;6.80;;;4.43;;
75009;SDS011;63564;46.840;18.336;2023-05-02T13:07:35;6.47;;;4.32;;
75009;SDS011;63564;46.840;18.336;2023-05-02T13:10:36;8.90;;;4.60;;
75009;SDS011;63564;46.840;18.336;2023-05-02T13:13:36;7.03;;;4.20;;
75009;SDS011;63564;46.840;18.336;2023-05-02T13:16:37;7.67;;;4.07;;
75009;SDS011;63564;46.840;18.336;2023-05-02T13:19:37;6.93;;;4.07;;
75009;SDS011;63564;46.840;18.336;2023-05-02T13:22:38;7.77;;;4.30;;
75009;SDS011;63564;46.840;18.336;2023-05-02T13:25:38;7.57;;;4.33;;
75009;SDS011;63564;46.840;18.336;2023-05-02T13:28:39;7.68;;;4.22;;
75009;SDS011;63564;46.840;18.336;2023-05-02T13:31:39;6.77;;;3.90;;
75009;SDS011;63564;46.840;18.336;2023-05-02T13:34:40;6.60;;;4.00;;
75009;SDS011;63564;46.840;18.336;2023-05-02T13:37:40;7.60;;;4.00;;
75009;SDS011;63564;46.840;18.336;2023-05-02T13:40:41;6.85;;;3.97;;
75009;SDS011;63564;46.840;18.336;2023-05-02T13:43:41;8.43;;;4.30;;
75009;SDS011;63564;46.840;18.336;2023-05-02T13:46:41;7.83;;;4.20;;
75009;SDS011;63564;46.840;18.336;2023-05-02T13:49:42;10.57;;;4.05;;
75009;SDS011;63564;46.840;18.336;2023-05-02T13:52:43;8.70;;;4.30;;
75009;SDS011;63564;46.840;18.336;2023-05-02T13:55:43;6.90;;;4.40;;
75009;SDS011;63564;46.840;18.336;2023-05-02T13:58:44;7.73;;;4.20;;
75009;SDS011;63564;46.840;18.336;2023-05-02T14:01:44;8.27;;;4.53;;
75009;SDS011;63564;46.840;18.336;2023-05-02T14:04:45;8.07;;;4.17;;
75009;SDS011;63564;46.840;18.336;2023-05-02T14:07:45;7.80;;;4.07;;
75009;SDS011;63564;46.840;18.336;2023-05-02T14:10:46;9.30;;;4.47;;
75009;SDS011;63564;46.840;18.336;2023-05-02T14:13:46;6.85;;;4.07;;
75009;SDS011;63564;46.840;18.336;2023-05-02T14:16:46;7.17;;;4.10;;
75009;SDS011;63564;46.840;18.336;2023-05-02T14:19:47;7.43;;;4.00;;
75009;SDS011;63564;46.840;18.336;2023-05-02T14:22:48;7.50;;;4.33;;
75009;SDS011;63564;46.840;18.336;2023-05-02T14:25:48;7.07;;;4.03;;
75009;SDS011;63564;46.840;18.336;2023-05-02T14:28:49;7.60;;;4.17;;
75009;SDS011;63564;46.840;18.336;2023-05-02T14:31:49;6.30;;;3.93;;
75009;SDS011;63564;46.840;18.336;2023-05-02T14:34:50;7.00;;;4.20;;
75009;SDS011;63564;46.840;18.336;2023-05-02T14:37:50;6.85;;;4.35;;
75009;SDS011;63564;46.840;18.336;2023-05-02T14:40:50;7.10;;;4.03;;
75009;SDS011;63564;46.840;18.336;2023-05-02T14:43:51;7.30;;;4.37;;
75009;SDS011;63564;46.840;18.336;2023-05-02T14:46:53;7.50;;;4.43;;
75009;SDS011;63564;46.840;18.336;2023-05-02T14:49:55;8.07;;;3.90;;
75009;SDS011;63564;46.840;18.336;2023-05-02T14:52:55;8.20;;;4.10;;
75009;SDS011;63564;46.840;18.336;2023-05-02T14:55:56;6.53;;;3.90;;
75009;SDS011;63564;46.840;18.336;2023-05-02T14:58:56;9.47;;;4.50;;
75009;SDS011;63564;46.840;18.336;2023-05-02T15:01:56;6.73;;;4.43;;
75009;SDS011;63564;46.840;18.336;2023-05-02T15:04:57;7.77;;;4.20;;
75009;SDS011;63564;46.840;18.336;2023-05-02T15:07:57;8.00;;;3.83;;
75009;SDS011;63564;46.840;18.336;2023-05-02T15:10:58;7.47;;;4.00;;
75009;SDS011;63564;46.840;18.336;2023-05-02T15:13:58;7.27;;;4.17;;
75009;SDS011;63564;46.840;18.336;2023-05-02T15:16:59;7.17;;;3.83;;
75009;SDS011;63564;46.840;18.336;2023-05-02T15:19:59;6.87;;;4.03;;
75009;SDS011;63564;46.840;18.336;2023-05-02T15:22:59;8.23;;;4.07;;
75009;SDS011;63564;46.840;18.336;2023-05-02T15:26:02;7.93;;;4.40;;
75009;SDS011;63564;46.840;18.336;2023-05-02T15:29:02;8.27;;;4.25;;
75009;SDS011;63564;46.840;18.336;2023-05-02T15:32:03;6.83;;;4.07;;
75009;SDS011;63564;46.840;18.336;2023-05-02T15:35:06;8.07;;;4.90;;
75009;SDS011;63564;46.840;18.336;2023-05-02T15:38:07;7.50;;;4.63;;
75009;SDS011;63564;46.840;18.336;2023-05-02T15:41:08;9.10;;;4.87;;
75009;SDS011;63564;46.840;18.336;2023-05-02T15:44:10;8.93;;;5.20;;
75009;SDS011;63564;46.840;18.336;2023-05-02T15:47:10;9.73;;;5.30;;
75009;SDS011;63564;46.840;18.336;2023-05-02T15:50:11;9.27;;;5.13;;
75009;SDS011;63564;46.840;18.336;2023-05-02T15:53:12;8.57;;;5.70;;
75009;SDS011;63564;46.840;18.336;2023-05-02T15:56:14;9.35;;;5.43;;
75009;SDS011;63564;46.840;18.336;2023-05-02T15:59:15;9.52;;;5.82;;
75009;SDS011;63564;46.840;18.336;2023-05-02T16:02:15;8.73;;;5.73;;
75009;SDS011;63564;46.840;18.336;2023-05-02T16:05:16;11.87;;;6.17;;
75009;SDS011;63564;46.840;18.336;2023-05-02T16:08:16;9.80;;;6.07;;
75009;SDS011;63564;46.840;18.336;2023-05-02T16:11:17;10.03;;;5.90;;
75009;SDS011;63564;46.840;18.336;2023-05-02T16:14:19;11.15;;;6.30;;
75009;SDS011;63564;46.840;18.336;2023-05-02T16:17:22;10.95;;;5.75;;
75009;SDS011;63564;46.840;18.336;2023-05-02T16:20:24;12.63;;;7.97;;
75009;SDS011;63564;46.840;18.336;2023-05-02T16:23:24;10.57;;;7.00;;
75009;SDS011;63564;46.840;18.336;2023-05-02T16:26:25;11.80;;;6.50;;
75009;SDS011;63564;46.840;18.336;2023-05-02T16:29:25;11.13;;;6.60;;
75009;SDS011;63564;46.840;18.336;2023-05-02T16:32:26;9.07;;;6.50;;
75009;SDS011;63564;46.840;18.336;2023-05-02T16:35:27;11.40;;;6.60;;
75009;SDS011;63564;46.840;18.336;2023-05-02T16:38:27;11.63;;;7.20;;
75009;SDS011;63564;46.840;18.336;2023-05-02T16:41:27;10.57;;;6.80;;
75009;SDS011;63564;46.840;18.336;2023-05-02T16:44:28;11.25;;;7.28;;
75009;SDS011;63564;46.840;18.336;2023-05-02T16:47:29;11.07;;;7.03;;
75009;SDS011;63564;46.840;18.336;2023-05-02T16:50:29;10.27;;;6.97;;
75009;SDS011;63564;46.840;18.336;2023-05-02T16:53:30;13.30;;;8.67;;
75009;SDS011;63564;46.840;18.336;2023-05-02T16:56:30;13.80;;;8.30;;
75009;SDS011;63564;46.840;18.336;2023-05-02T16:59:31;13.80;;;8.30;;
75009;SDS011;63564;46.840;18.336;2023-05-02T17:02:31;13.83;;;7.53;;
75009;SDS011;63564;46.840;18.336;2023-05-02T17:05:32;12.55;;;7.10;;
75009;SDS011;63564;46.840;18.336;2023-05-02T17:08:32;11.93;;;6.97;;
75009;SDS011;63564;46.840;18.336;2023-05-02T17:11:33;11.07;;;6.77;;
75009;SDS011;63564;46.840;18.336;2023-05-02T17:14:33;11.80;;;7.47;;
75009;SDS011;63564;46.840;18.336;2023-05-02T17:17:34;13.17;;;7.77;;
75009;SDS011;63564;46.840;18.336;2023-05-02T17:20:35;14.00;;;8.10;;
75009;SDS011;63564;46.840;18.336;2023-05-02T17:23:36;11.90;;;7.40;;
75009;SDS011;63564;46.840;18.336;2023-05-02T17:26:37;13.50;;;7.95;;
75009;SDS011;63564;46.840;18.336;2023-05-02T17:29:38;13.93;;;8.40;;
75009;SDS011;63564;46.840;18.336;2023-05-02T17:32:38;13.90;;;8.20;;
75009;SDS011;63564;46.840;18.336;2023-05-02T17:35:39;14.37;;;8.70;;
75009;SDS011;63564;46.840;18.336;2023-05-02T17:38:40;15.37;;;9.20;;
75009;SDS011;63564;46.840;18.336;2023-05-02T17:41:40;16.30;;;10.20;;
75009;SDS011;63564;46.840;18.336;2023-05-02T17:44:41;18.83;;;9.37;;
75009;SDS011;63564;46.840;18.336;2023-05-02T17:47:41;15.50;;;9.27;;
75009;SDS011;63564;46.840;18.336;2023-05-02T17:50:41;15.73;;;9.07;;
75009;SDS011;63564;46.840;18.336;2023-05-02T17:53:42;14.27;;;8.93;;
75009;SDS011;63564;46.840;18.336;2023-05-02T17:56:43;15.43;;;8.63;;
75009;SDS011;63564;46.840;18.336;2023-05-02T17:59:43;13.87;;;8.57;;
75009;SDS011;63564;46.840;18.336;2023-05-02T18:02:44;14.50;;;9.05;;
75009;SDS011;63564;46.840;18.336;2023-05-02T18:05:44;13.27;;;8.07;;
75009;SDS011;63564;46.840;18.336;2023-05-02T18:08:46;12.48;;;8.20;;
75009;SDS011;63564;46.840;18.336;2023-05-02T18:11:47;15.00;;;9.17;;
75009;SDS011;63564;46.840;18.336;2023-05-02T18:14:49;14.13;;;8.68;;
75009;SDS011;63564;46.840;18.336;2023-05-02T18:17:51;13.97;;;8.27;;
75009;SDS011;63564;46.840;18.336;2023-05-02T18:20:52;12.93;;;8.02;;
75009;SDS011;63564;46.840;18.336;2023-05-02T18:23:52;13.47;;;8.27;;
75009;SDS011;63564;46.840;18.336;2023-05-02T18:26:54;13.93;;;8.27;;
75009;SDS011;63564;46.840;18.336;2023-05-02T18:29:54;13.90;;;7.77;;
75009;SDS011;63564;46.840;18.336;2023-05-02T18:32:55;13.43;;;7.20;;
75009;SDS011;63564;46.840;18.336;2023-05-02T18:35:56;13.47;;;6.90;;
75009;SDS011;63564;46.840;18.336;2023-05-02T18:38:56;10.90;;;6.70;;